createdAt,value
2017-06-26T00:00:22.016Z,942.55
2017-06-26T00:00:50.146Z,942.53
2017-06-26T00:01:18.192Z,942.53
2017-06-26T00:01:46.233Z,942.54
2017-06-26T00:02:14.399Z,942.52
2017-06-26T00:02:42.555Z,942.49
2017-06-26T00:03:10.675Z,942.55
2017-06-26T00:03:38.632Z,942.54
2017-06-26T00:04:06.749Z,942.51
2017-06-26T00:04:34.684Z,942.56
2017-06-26T00:05:02.811Z,942.51
2017-06-26T00:05:30.957Z,942.54
2017-06-26T00:05:58.980Z,942.53
2017-06-26T00:06:27.106Z,942.51
2017-06-26T00:06:55.244Z,942.53
2017-06-26T00:07:23.369Z,942.52
2017-06-26T00:07:51.526Z,942.53
2017-06-26T00:08:19.661Z,942.53
2017-06-26T00:08:47.824Z,942.52
2017-06-26T00:09:15.946Z,942.54
2017-06-26T00:09:44.074Z,942.5
2017-06-26T00:10:12.218Z,942.52
2017-06-26T00:10:40.346Z,942.52
2017-06-26T00:11:08.475Z,942.52
2017-06-26T00:11:36.602Z,942.52
2017-06-26T00:12:04.763Z,942.53
2017-06-26T00:12:32.897Z,942.51
2017-06-26T00:13:01.033Z,942.55
2017-06-26T00:13:29.074Z,942.55
2017-06-26T00:13:57.216Z,942.55
2017-06-26T00:14:25.270Z,942.55
2017-06-26T00:14:53.400Z,942.56
2017-06-26T00:15:21.522Z,942.56
2017-06-26T00:15:49.642Z,942.6
2017-06-26T00:16:17.763Z,942.56
2017-06-26T00:16:45.903Z,942.57
2017-06-26T00:17:13.968Z,942.56
2017-06-26T00:17:42.086Z,942.57
2017-06-26T00:18:10.102Z,942.61
2017-06-26T00:18:38.138Z,942.54
2017-06-26T00:19:06.261Z,942.59
2017-06-26T00:19:34.344Z,942.6
2017-06-26T00:20:02.467Z,942.57
2017-06-26T00:20:30.619Z,942.59
2017-06-26T00:20:58.735Z,942.6
2017-06-26T00:21:26.866Z,942.61
2017-06-26T00:21:55.012Z,942.58
2017-06-26T00:22:23.140Z,942.58
2017-06-26T00:22:51.247Z,942.62
2017-06-26T00:23:19.377Z,942.63
2017-06-26T00:23:47.418Z,942.61
2017-06-26T00:24:15.551Z,942.61
2017-06-26T00:24:43.662Z,942.62
2017-06-26T00:25:11.808Z,942.65
2017-06-26T00:25:39.936Z,942.64
2017-06-26T00:26:08.089Z,942.63
2017-06-26T00:26:36.022Z,942.63
2017-06-26T00:27:04.152Z,942.65
2017-06-26T00:27:32.267Z,942.64
2017-06-26T00:28:00.405Z,942.65
2017-06-26T00:28:28.370Z,942.69
2017-06-26T00:28:56.491Z,942.65
2017-06-26T00:29:24.446Z,942.66
2017-06-26T00:29:52.576Z,942.69
2017-06-26T00:30:20.747Z,942.65
2017-06-26T00:30:48.922Z,942.65
2017-06-26T00:31:17.056Z,942.68
2017-06-26T00:31:45.080Z,942.64
2017-06-26T00:32:13.215Z,942.65
2017-06-26T00:32:41.347Z,942.7
2017-06-26T00:33:09.485Z,942.67
2017-06-26T00:33:37.648Z,942.66
2017-06-26T00:34:05.793Z,942.69
2017-06-26T00:34:33.734Z,942.66
2017-06-26T00:35:01.892Z,942.63
2017-06-26T00:35:30.027Z,942.69
2017-06-26T00:35:58.151Z,942.69
2017-06-26T00:36:26.192Z,942.64
2017-06-26T00:36:54.312Z,942.7
2017-06-26T00:37:22.347Z,942.64
2017-06-26T00:37:50.402Z,942.67
2017-06-26T00:38:18.476Z,942.67
2017-06-26T00:38:46.598Z,942.7
2017-06-26T00:39:14.729Z,942.68
2017-06-26T00:39:42.788Z,942.64
2017-06-26T00:40:10.932Z,942.68
2017-06-26T00:40:39.060Z,942.65
2017-06-26T00:41:07.232Z,942.68
2017-06-26T00:41:35.381Z,942.7
2017-06-26T00:42:03.538Z,942.68
2017-06-26T00:42:31.504Z,942.65
2017-06-26T00:42:59.643Z,942.69
2017-06-26T00:43:27.714Z,942.66
2017-06-26T00:43:55.847Z,942.69
2017-06-26T00:44:24.000Z,942.66
2017-06-26T00:44:52.137Z,942.66
2017-06-26T00:45:20.269Z,942.64
2017-06-26T00:45:48.408Z,942.66
2017-06-26T00:46:16.448Z,942.63
2017-06-26T00:46:44.592Z,942.64
2017-06-26T00:47:12.616Z,942.6
2017-06-26T00:47:40.699Z,942.62
2017-06-26T00:48:08.838Z,942.61
2017-06-26T00:48:36.963Z,942.61
2017-06-26T00:49:05.111Z,942.62
2017-06-26T00:49:33.254Z,942.6
2017-06-26T00:50:01.289Z,942.67
2017-06-26T00:50:29.337Z,942.65
2017-06-26T00:50:57.373Z,942.62
2017-06-26T00:51:25.380Z,942.62
2017-06-26T00:51:53.515Z,942.61
2017-06-26T00:52:21.646Z,942.65
2017-06-26T00:52:49.805Z,942.61
2017-06-26T00:53:17.848Z,942.62
2017-06-26T00:53:45.972Z,942.57
2017-06-26T00:54:14.119Z,942.62
2017-06-26T00:54:42.236Z,942.64
2017-06-26T00:55:10.337Z,942.63
2017-06-26T00:55:38.291Z,942.63
2017-06-26T00:56:06.410Z,942.62
2017-06-26T00:56:34.460Z,942.61
2017-06-26T00:57:02.573Z,942.6
2017-06-26T00:57:30.710Z,942.61
2017-06-26T00:57:58.827Z,942.59
2017-06-26T00:58:26.939Z,942.56
2017-06-26T00:58:55.096Z,942.59
2017-06-26T00:59:23.228Z,942.59
2017-06-26T00:59:51.368Z,942.58
2017-06-26T01:00:19.418Z,942.63
2017-06-26T01:00:47.543Z,942.58
2017-06-26T01:01:15.683Z,942.56
2017-06-26T01:01:43.730Z,942.56
2017-06-26T01:02:11.837Z,942.58
2017-06-26T01:02:39.989Z,942.53
2017-06-26T01:03:08.111Z,942.55
2017-06-26T01:03:36.263Z,942.6
2017-06-26T01:04:04.402Z,942.57
2017-06-26T01:04:32.416Z,942.57
2017-06-26T01:05:00.478Z,942.59
2017-06-26T01:05:28.622Z,942.57
2017-06-26T01:05:56.743Z,942.54
2017-06-26T01:06:24.803Z,942.55
2017-06-26T01:06:52.937Z,942.56
2017-06-26T01:07:21.063Z,942.53
2017-06-26T01:07:49.194Z,942.52
2017-06-26T01:08:17.254Z,942.52
2017-06-26T01:08:45.384Z,942.52
2017-06-26T01:09:13.539Z,942.5
2017-06-26T01:09:41.577Z,942.49
2017-06-26T01:10:09.703Z,942.5
2017-06-26T01:10:37.728Z,942.48
2017-06-26T01:11:05.782Z,942.43
2017-06-26T01:11:33.838Z,942.48
2017-06-26T01:12:01.867Z,942.47
2017-06-26T01:12:29.980Z,942.47
2017-06-26T01:12:58.227Z,942.47
2017-06-26T01:13:26.363Z,942.49
2017-06-26T01:13:54.416Z,942.49
2017-06-26T01:14:22.382Z,942.49
2017-06-26T01:14:50.465Z,942.45
2017-06-26T01:15:18.609Z,942.53
2017-06-26T01:15:46.665Z,942.47
2017-06-26T01:16:14.821Z,942.48
2017-06-26T01:16:42.950Z,942.47
2017-06-26T01:17:11.070Z,942.48
2017-06-26T01:17:39.104Z,942.44
2017-06-26T01:18:07.217Z,942.5
2017-06-26T01:18:35.341Z,942.45
2017-06-26T01:19:03.498Z,942.46
2017-06-26T01:19:31.629Z,942.43
2017-06-26T01:19:59.775Z,942.41
2017-06-26T01:20:27.919Z,942.42
2017-06-26T01:20:56.049Z,942.42
2017-06-26T01:21:24.183Z,942.4
2017-06-26T01:21:52.302Z,942.41
2017-06-26T01:22:20.241Z,942.41
2017-06-26T01:22:48.361Z,942.43
2017-06-26T01:23:16.383Z,942.41
2017-06-26T01:23:44.443Z,942.4
2017-06-26T01:24:12.578Z,942.4
2017-06-26T01:24:40.729Z,942.43
2017-06-26T01:25:08.859Z,942.43
2017-06-26T01:25:36.982Z,942.42
2017-06-26T01:26:05.150Z,942.44
2017-06-26T01:26:33.283Z,942.43
2017-06-26T01:27:01.424Z,942.39
2017-06-26T01:27:29.545Z,942.41
2017-06-26T01:27:57.688Z,942.41
2017-06-26T01:28:25.818Z,942.43
2017-06-26T01:28:53.957Z,942.46
2017-06-26T01:29:21.982Z,942.48
2017-06-26T01:29:50.124Z,942.46
2017-06-26T01:30:18.275Z,942.48
2017-06-26T01:30:46.419Z,942.45
2017-06-26T01:31:14.568Z,942.45
2017-06-26T01:31:42.703Z,942.46
2017-06-26T01:32:10.827Z,942.4
2017-06-26T01:32:38.970Z,942.46
2017-06-26T01:33:07.100Z,942.45
2017-06-26T01:33:35.250Z,942.46
2017-06-26T01:34:03.376Z,942.49
2017-06-26T01:34:31.512Z,942.48
2017-06-26T01:34:59.662Z,942.45
2017-06-26T01:35:27.788Z,942.42
2017-06-26T01:35:55.936Z,942.45
2017-06-26T01:36:24.079Z,942.45
2017-06-26T01:36:52.228Z,942.47
2017-06-26T01:37:20.288Z,942.46
2017-06-26T01:37:48.232Z,942.48
2017-06-26T01:38:16.360Z,942.49
2017-06-26T01:38:44.522Z,942.45
2017-06-26T01:39:12.563Z,942.45
2017-06-26T01:39:40.689Z,942.49
2017-06-26T01:40:08.831Z,942.47
2017-06-26T01:40:36.974Z,942.43
2017-06-26T01:41:05.089Z,942.47
2017-06-26T01:41:33.142Z,942.41
2017-06-26T01:42:01.276Z,942.46
2017-06-26T01:42:29.417Z,942.45
2017-06-26T01:42:57.570Z,942.44
2017-06-26T01:43:25.598Z,942.46
2017-06-26T01:43:53.648Z,942.42
2017-06-26T01:44:21.788Z,942.44
2017-06-26T01:44:49.925Z,942.41
2017-06-26T01:45:17.952Z,942.41
2017-06-26T01:45:46.008Z,942.41
2017-06-26T01:46:14.124Z,942.45
2017-06-26T01:46:42.256Z,942.44
2017-06-26T01:47:10.373Z,942.46
2017-06-26T01:47:38.615Z,942.47
2017-06-26T01:48:06.659Z,942.44
2017-06-26T01:48:34.708Z,942.44
2017-06-26T01:49:02.859Z,942.4
2017-06-26T01:49:30.904Z,942.43
2017-06-26T01:49:59.046Z,942.44
2017-06-26T01:50:27.175Z,942.41
2017-06-26T01:50:55.312Z,942.41
2017-06-26T01:51:23.349Z,942.43
2017-06-26T01:51:51.478Z,942.41
2017-06-26T01:52:19.521Z,942.45
2017-06-26T01:52:47.646Z,942.44
2017-06-26T01:53:15.768Z,942.42
2017-06-26T01:53:43.894Z,942.45
2017-06-26T01:54:12.069Z,942.4
2017-06-26T01:54:40.124Z,942.42
2017-06-26T01:55:08.259Z,942.4
2017-06-26T01:55:36.384Z,942.44
2017-06-26T01:56:04.522Z,942.43
2017-06-26T01:56:32.642Z,942.41
2017-06-26T01:57:00.671Z,942.4
2017-06-26T01:57:28.723Z,942.43
2017-06-26T01:57:56.851Z,942.39
2017-06-26T01:58:25.003Z,942.41
2017-06-26T01:58:53.140Z,942.43
2017-06-26T01:59:21.204Z,942.42
2017-06-26T01:59:49.316Z,942.41
2017-06-26T02:00:17.663Z,942.41
2017-06-26T02:00:45.787Z,942.4
2017-06-26T02:01:13.918Z,942.42
2017-06-26T02:01:41.965Z,942.38
2017-06-26T02:02:10.107Z,942.42
2017-06-26T02:02:38.158Z,942.39
2017-06-26T02:03:06.177Z,942.38
2017-06-26T02:03:34.334Z,942.41
2017-06-26T02:04:02.454Z,942.39
2017-06-26T02:04:30.608Z,942.4
2017-06-26T02:04:58.746Z,942.37
2017-06-26T02:05:26.798Z,942.42
2017-06-26T02:05:54.829Z,942.39
2017-06-26T02:06:22.939Z,942.43
2017-06-26T02:06:50.999Z,942.42
2017-06-26T02:07:19.155Z,942.4
2017-06-26T02:07:47.296Z,942.42
2017-06-26T02:08:15.420Z,942.38
2017-06-26T02:08:43.557Z,942.38
2017-06-26T02:09:11.702Z,942.41
2017-06-26T02:09:39.714Z,942.41
2017-06-26T02:10:07.849Z,942.4
2017-06-26T02:10:35.897Z,942.38
2017-06-26T02:11:04.016Z,942.4
2017-06-26T02:11:32.154Z,942.39
2017-06-26T02:12:00.262Z,942.4
2017-06-26T02:12:28.393Z,942.41
2017-06-26T02:12:56.532Z,942.4
2017-06-26T02:13:24.686Z,942.39
2017-06-26T02:13:52.842Z,942.37
2017-06-26T02:14:20.987Z,942.38
2017-06-26T02:14:49.110Z,942.4
2017-06-26T02:15:17.304Z,942.35
2017-06-26T02:15:45.308Z,942.36
2017-06-26T02:16:13.415Z,942.37
2017-06-26T02:16:41.553Z,942.38
2017-06-26T02:17:09.693Z,942.36
2017-06-26T02:17:37.816Z,942.39
2017-06-26T02:18:06.165Z,942.36
2017-06-26T02:18:34.290Z,942.33
2017-06-26T02:19:02.319Z,942.34
2017-06-26T02:19:30.449Z,942.32
2017-06-26T02:19:58.569Z,942.35
2017-06-26T02:20:26.689Z,942.33
2017-06-26T02:20:54.794Z,942.37
2017-06-26T02:21:22.928Z,942.35
2017-06-26T02:21:50.968Z,942.34
2017-06-26T02:22:18.921Z,942.3
2017-06-26T02:22:46.966Z,942.31
2017-06-26T02:23:15.032Z,942.3
2017-06-26T02:23:42.999Z,942.3
2017-06-26T02:24:11.146Z,942.33
2017-06-26T02:24:39.290Z,942.31
2017-06-26T02:25:07.416Z,942.3
2017-06-26T02:25:35.548Z,942.33
2017-06-26T02:26:03.707Z,942.3
2017-06-26T02:26:31.846Z,942.32
2017-06-26T02:26:59.978Z,942.25
2017-06-26T02:27:28.109Z,942.31
2017-06-26T02:27:56.248Z,942.28
2017-06-26T02:28:24.385Z,942.26
2017-06-26T02:28:52.488Z,942.28
2017-06-26T02:29:20.610Z,942.27
2017-06-26T02:29:48.756Z,942.28
2017-06-26T02:30:16.793Z,942.3
2017-06-26T02:30:44.916Z,942.31
2017-06-26T02:31:13.039Z,942.28
2017-06-26T02:31:41.120Z,942.31
2017-06-26T02:32:09.151Z,942.32
2017-06-26T02:32:37.276Z,942.32
2017-06-26T02:33:05.396Z,942.32
2017-06-26T02:33:33.569Z,942.29
2017-06-26T02:34:01.603Z,942.29
2017-06-26T02:34:29.754Z,942.25
2017-06-26T02:34:57.878Z,942.28
2017-06-26T02:35:25.928Z,942.29
2017-06-26T02:35:54.052Z,942.3
2017-06-26T02:36:22.197Z,942.26
2017-06-26T02:36:50.253Z,942.31
2017-06-26T02:37:18.195Z,942.25
2017-06-26T02:37:46.329Z,942.26
2017-06-26T02:38:14.441Z,942.24
2017-06-26T02:38:42.554Z,942.22
2017-06-26T02:39:10.827Z,942.2
2017-06-26T02:39:38.964Z,942.22
2017-06-26T02:40:07.081Z,942.24
2017-06-26T02:40:35.230Z,942.18
2017-06-26T02:41:03.365Z,942.16
2017-06-26T02:41:31.484Z,942.17
2017-06-26T02:41:59.638Z,942.2
2017-06-26T02:42:27.750Z,942.18
2017-06-26T02:42:55.879Z,942.16
2017-06-26T02:43:23.988Z,942.16
2017-06-26T02:43:52.129Z,942.18
2017-06-26T02:44:20.267Z,942.14
2017-06-26T02:44:48.416Z,942.1
2017-06-26T02:45:16.558Z,942.14
2017-06-26T02:45:44.681Z,942.11
2017-06-26T02:46:12.777Z,942.09
2017-06-26T02:46:40.823Z,942.13
2017-06-26T02:47:08.996Z,942.11
2017-06-26T02:47:37.132Z,942.14
2017-06-26T02:48:05.270Z,942.11
2017-06-26T02:48:33.407Z,942.12
2017-06-26T02:49:01.452Z,942.11
2017-06-26T02:49:29.504Z,942.1
2017-06-26T02:49:57.623Z,942.03
2017-06-26T02:50:25.660Z,942.04
2017-06-26T02:50:53.774Z,942.05
2017-06-26T02:51:21.811Z,942.02
2017-06-26T02:51:49.917Z,942.08
2017-06-26T02:52:18.031Z,942.05
2017-06-26T02:52:46.169Z,942.03
2017-06-26T02:53:14.206Z,942.07
2017-06-26T02:53:42.254Z,942.04
2017-06-26T02:54:10.395Z,942.04
2017-06-26T02:54:38.542Z,942.04
2017-06-26T02:55:06.679Z,942.06
2017-06-26T02:55:34.815Z,942.04
2017-06-26T02:56:02.746Z,942.04
2017-06-26T02:56:30.752Z,942.04
2017-06-26T02:56:58.778Z,942.05
2017-06-26T02:57:26.937Z,942.05
2017-06-26T02:57:55.090Z,942.07
2017-06-26T02:58:23.211Z,942.06
2017-06-26T02:58:51.262Z,942.08
2017-06-26T02:59:19.325Z,942.08
2017-06-26T02:59:47.454Z,942.1
2017-06-26T03:00:15.589Z,942.11
2017-06-26T03:00:43.718Z,942.08
2017-06-26T03:01:11.859Z,942.09
2017-06-26T03:01:39.809Z,942.08
2017-06-26T03:02:07.941Z,942.06
2017-06-26T03:02:36.053Z,942.06
2017-06-26T03:03:04.090Z,942.05
2017-06-26T03:03:32.228Z,942.09
2017-06-26T03:04:00.283Z,942.1
2017-06-26T03:04:28.308Z,942.09
2017-06-26T03:04:56.459Z,942.1
2017-06-26T03:05:24.516Z,942.08
2017-06-26T03:05:52.662Z,942.06
2017-06-26T03:06:20.799Z,942.03
2017-06-26T03:06:48.932Z,942.04
2017-06-26T03:07:17.062Z,942.03
2017-06-26T03:07:45.199Z,942.05
2017-06-26T03:08:13.342Z,942.03
2017-06-26T03:08:41.457Z,941.97
2017-06-26T03:09:09.601Z,942
2017-06-26T03:09:37.560Z,941.98
2017-06-26T03:10:05.693Z,941.98
2017-06-26T03:10:33.822Z,941.95
2017-06-26T03:11:01.864Z,941.99
2017-06-26T03:11:29.989Z,941.97
2017-06-26T03:11:58.087Z,941.95
2017-06-26T03:12:26.226Z,941.97
2017-06-26T03:12:54.378Z,941.94
2017-06-26T03:13:22.439Z,941.93
2017-06-26T03:13:50.454Z,941.91
2017-06-26T03:14:18.595Z,941.99
2017-06-26T03:14:46.732Z,941.99
2017-06-26T03:15:14.861Z,941.92
2017-06-26T03:15:42.886Z,941.91
2017-06-26T03:16:11.046Z,941.94
2017-06-26T03:16:39.192Z,941.95
2017-06-26T03:17:07.225Z,941.97
2017-06-26T03:17:35.368Z,941.94
2017-06-26T03:18:03.508Z,941.93
2017-06-26T03:18:31.567Z,941.92
2017-06-26T03:18:59.703Z,941.91
2017-06-26T03:19:27.846Z,941.89
2017-06-26T03:19:55.883Z,941.91
2017-06-26T03:20:23.843Z,941.92
2017-06-26T03:20:52.004Z,941.9
2017-06-26T03:21:20.057Z,941.93
2017-06-26T03:21:48.184Z,941.93
2017-06-26T03:22:16.277Z,941.91
2017-06-26T03:22:44.586Z,941.89
2017-06-26T03:23:12.646Z,941.92
2017-06-26T03:23:40.747Z,941.88
2017-06-26T03:24:08.864Z,941.89
2017-06-26T03:24:36.915Z,941.87
2017-06-26T03:25:05.037Z,941.91
2017-06-26T03:25:33.171Z,941.9
2017-06-26T03:26:01.204Z,941.91
2017-06-26T03:26:29.372Z,941.87
2017-06-26T03:26:57.510Z,941.84
2017-06-26T03:27:25.461Z,941.84
2017-06-26T03:27:53.601Z,941.84
2017-06-26T03:28:21.630Z,941.82
2017-06-26T03:28:49.767Z,941.82
2017-06-26T03:29:17.805Z,941.82
2017-06-26T03:29:45.867Z,941.77
2017-06-26T03:30:14.015Z,941.82
2017-06-26T03:30:42.033Z,941.81
2017-06-26T03:31:10.170Z,941.83
2017-06-26T03:31:38.291Z,941.8
2017-06-26T03:32:06.393Z,941.81
2017-06-26T03:32:34.444Z,941.77
2017-06-26T03:33:02.567Z,941.79
2017-06-26T03:33:30.700Z,941.78
2017-06-26T03:33:58.828Z,941.81
2017-06-26T03:34:26.938Z,941.83
2017-06-26T03:34:55.076Z,941.8
2017-06-26T03:35:23.193Z,941.83
2017-06-26T03:35:51.337Z,941.83
2017-06-26T03:36:19.345Z,941.84
2017-06-26T03:36:47.505Z,941.83
2017-06-26T03:37:15.665Z,941.79
2017-06-26T03:37:43.826Z,941.81
2017-06-26T03:38:11.860Z,941.85
2017-06-26T03:38:39.905Z,941.84
2017-06-26T03:39:07.944Z,941.84
2017-06-26T03:39:36.062Z,941.82
2017-06-26T03:40:04.195Z,941.83
2017-06-26T03:40:32.342Z,941.86
2017-06-26T03:41:00.417Z,941.82
2017-06-26T03:41:28.526Z,941.8
2017-06-26T03:41:56.656Z,941.8
2017-06-26T03:42:24.736Z,941.82
2017-06-26T03:42:52.855Z,941.77
2017-06-26T03:43:20.894Z,941.75
2017-06-26T03:43:48.937Z,941.79
2017-06-26T03:44:16.979Z,941.76
2017-06-26T03:44:45.110Z,941.75
2017-06-26T03:45:13.246Z,941.74
2017-06-26T03:45:41.409Z,941.74
2017-06-26T03:46:09.553Z,941.72
2017-06-26T03:46:37.669Z,941.75
2017-06-26T03:47:05.809Z,941.75
2017-06-26T03:47:33.960Z,941.74
2017-06-26T03:48:02.089Z,941.74
2017-06-26T03:48:30.134Z,941.73
2017-06-26T03:48:58.176Z,941.74
2017-06-26T03:49:26.296Z,941.71
2017-06-26T03:49:54.450Z,941.73
2017-06-26T03:50:22.406Z,941.74
2017-06-26T03:50:50.557Z,941.69
2017-06-26T03:51:18.588Z,941.67
2017-06-26T03:51:46.632Z,941.67
2017-06-26T03:52:14.568Z,941.69
2017-06-26T03:52:42.691Z,941.65
2017-06-26T03:53:10.825Z,941.68
2017-06-26T03:53:38.963Z,941.67
2017-06-26T03:54:06.909Z,941.68
2017-06-26T03:54:35.028Z,941.68
2017-06-26T03:55:03.069Z,941.7
2017-06-26T03:55:31.116Z,941.69
2017-06-26T03:55:59.253Z,941.67
2017-06-26T03:56:27.403Z,941.69
2017-06-26T03:56:55.546Z,941.68
2017-06-26T03:57:23.698Z,941.68
2017-06-26T03:57:51.823Z,941.7
2017-06-26T03:58:19.935Z,941.69
2017-06-26T03:58:48.069Z,941.72
2017-06-26T03:59:16.210Z,941.68
2017-06-26T03:59:44.258Z,941.74
2017-06-26T04:00:12.400Z,941.71
2017-06-26T04:00:40.557Z,941.7
2017-06-26T04:01:08.697Z,941.69
2017-06-26T04:01:36.830Z,941.68
2017-06-26T04:02:04.852Z,941.67
2017-06-26T04:02:32.968Z,941.65
2017-06-26T04:03:01.002Z,941.69
2017-06-26T04:03:29.046Z,941.71
2017-06-26T04:03:57.189Z,941.68
2017-06-26T04:04:25.203Z,941.68
2017-06-26T04:04:53.338Z,941.68
2017-06-26T04:05:21.490Z,941.65
2017-06-26T04:05:49.526Z,941.66
2017-06-26T04:06:17.641Z,941.68
2017-06-26T04:06:45.670Z,941.71
2017-06-26T04:07:13.597Z,941.66
2017-06-26T04:07:41.711Z,941.67
2017-06-26T04:08:09.850Z,941.66
2017-06-26T04:08:37.995Z,941.68
2017-06-26T04:09:05.957Z,941.65
2017-06-26T04:09:33.990Z,941.65
2017-06-26T04:10:02.106Z,941.69
2017-06-26T04:10:30.223Z,941.65
2017-06-26T04:10:58.374Z,941.66
2017-06-26T04:11:26.519Z,941.7
2017-06-26T04:11:54.635Z,941.65
2017-06-26T04:12:22.726Z,941.67
2017-06-26T04:12:50.839Z,941.67
2017-06-26T04:13:18.890Z,941.65
2017-06-26T04:13:46.908Z,941.66
2017-06-26T04:14:15.045Z,941.69
2017-06-26T04:14:43.017Z,941.67
2017-06-26T04:15:11.129Z,941.68
2017-06-26T04:15:39.249Z,941.63
2017-06-26T04:16:07.397Z,941.7
2017-06-26T04:16:35.521Z,941.69
2017-06-26T04:17:03.634Z,941.67
2017-06-26T04:17:31.793Z,941.66
2017-06-26T04:17:59.915Z,941.64
2017-06-26T04:18:28.013Z,941.64
2017-06-26T04:18:55.949Z,941.64
2017-06-26T04:19:24.006Z,941.65
2017-06-26T04:19:52.148Z,941.62
2017-06-26T04:20:20.242Z,941.63
2017-06-26T04:20:48.393Z,941.66
2017-06-26T04:21:16.515Z,941.63
2017-06-26T04:21:44.657Z,941.64
2017-06-26T04:22:12.823Z,941.61
2017-06-26T04:22:40.845Z,941.66
2017-06-26T04:23:08.982Z,941.66
2017-06-26T04:23:37.073Z,941.61
2017-06-26T04:24:05.105Z,941.65
2017-06-26T04:24:33.040Z,941.64
2017-06-26T04:25:01.076Z,941.62
2017-06-26T04:25:29.122Z,941.62
2017-06-26T04:25:57.246Z,941.64
2017-06-26T04:26:25.368Z,941.62
2017-06-26T04:26:53.503Z,941.63
2017-06-26T04:27:21.545Z,941.62
2017-06-26T04:27:49.683Z,941.63
2017-06-26T04:28:17.804Z,941.63
2017-06-26T04:28:45.950Z,941.61
2017-06-26T04:29:14.062Z,941.61
2017-06-26T04:29:42.177Z,941.58
2017-06-26T04:30:10.314Z,941.59
2017-06-26T04:30:38.482Z,941.58
2017-06-26T04:31:06.600Z,941.56
2017-06-26T04:31:34.740Z,941.56
2017-06-26T04:32:02.869Z,941.57
2017-06-26T04:32:30.924Z,941.54
2017-06-26T04:32:59.077Z,941.56
2017-06-26T04:33:27.138Z,941.54
2017-06-26T04:33:55.291Z,941.59
2017-06-26T04:34:23.448Z,941.6
2017-06-26T04:34:51.559Z,941.57
2017-06-26T04:35:19.504Z,941.57
2017-06-26T04:35:47.623Z,941.57
2017-06-26T04:36:15.651Z,941.58
2017-06-26T04:36:43.776Z,941.59
2017-06-26T04:37:11.921Z,941.57
2017-06-26T04:37:40.049Z,941.54
2017-06-26T04:38:08.197Z,941.57
2017-06-26T04:38:36.245Z,941.54
2017-06-26T04:39:04.394Z,941.52
2017-06-26T04:39:32.510Z,941.54
2017-06-26T04:40:00.636Z,941.51
2017-06-26T04:40:28.693Z,941.54
2017-06-26T04:40:56.846Z,941.56
2017-06-26T04:41:24.994Z,941.55
2017-06-26T04:41:53.007Z,941.52
2017-06-26T04:42:21.072Z,941.51
2017-06-26T04:42:49.129Z,941.48
2017-06-26T04:43:17.262Z,941.52
2017-06-26T04:43:45.405Z,941.5
2017-06-26T04:44:13.550Z,941.48
2017-06-26T04:44:41.693Z,941.48
2017-06-26T04:45:09.732Z,941.46
2017-06-26T04:45:37.767Z,941.5
2017-06-26T04:46:05.815Z,941.49
2017-06-26T04:46:33.955Z,941.5
2017-06-26T04:47:02.084Z,941.47
2017-06-26T04:47:30.217Z,941.47
2017-06-26T04:47:58.302Z,941.47
2017-06-26T04:48:26.427Z,941.5
2017-06-26T04:48:54.547Z,941.48
2017-06-26T04:49:22.588Z,941.49
2017-06-26T04:49:50.738Z,941.49
2017-06-26T04:50:18.884Z,941.49
2017-06-26T04:50:47.013Z,941.49
2017-06-26T04:51:15.038Z,941.5
2017-06-26T04:51:43.184Z,941.49
2017-06-26T04:52:11.331Z,941.53
2017-06-26T04:52:39.445Z,941.52
2017-06-26T04:53:07.587Z,941.51
2017-06-26T04:53:35.725Z,941.49
2017-06-26T04:54:03.874Z,941.54
2017-06-26T04:54:32.044Z,941.5
2017-06-26T04:55:00.184Z,941.52
2017-06-26T04:55:28.342Z,941.52
2017-06-26T04:55:56.458Z,941.52
2017-06-26T04:56:24.599Z,941.57
2017-06-26T04:56:52.750Z,941.55
2017-06-26T04:57:20.968Z,941.56
2017-06-26T04:57:48.973Z,941.55
2017-06-26T04:58:17.138Z,941.54
2017-06-26T04:58:45.306Z,941.56
2017-06-26T04:59:13.432Z,941.58
2017-06-26T04:59:41.493Z,941.53
2017-06-26T05:00:09.627Z,941.54
2017-06-26T05:00:37.773Z,941.56
2017-06-26T05:01:05.885Z,941.52
2017-06-26T05:01:34.001Z,941.52
2017-06-26T05:02:02.117Z,941.56
2017-06-26T05:02:30.274Z,941.54
2017-06-26T05:02:58.279Z,941.53
2017-06-26T05:03:26.426Z,941.53
2017-06-26T05:03:54.464Z,941.52
2017-06-26T05:04:22.619Z,941.52
2017-06-26T05:04:50.667Z,941.54
2017-06-26T05:05:18.807Z,941.53
2017-06-26T05:05:46.909Z,941.49
2017-06-26T05:06:14.963Z,941.51
2017-06-26T05:06:43.071Z,941.5
2017-06-26T05:07:11.225Z,941.51
2017-06-26T05:07:39.375Z,941.48
2017-06-26T05:08:07.527Z,941.48
2017-06-26T05:08:35.566Z,941.48
2017-06-26T05:09:03.626Z,941.49
2017-06-26T05:09:31.750Z,941.48
2017-06-26T05:09:59.887Z,941.49
2017-06-26T05:10:27.894Z,941.45
2017-06-26T05:10:56.035Z,941.5
2017-06-26T05:11:24.094Z,941.48
2017-06-26T05:11:52.226Z,941.52
2017-06-26T05:12:20.271Z,941.5
2017-06-26T05:12:48.417Z,941.47
2017-06-26T05:13:16.549Z,941.51
2017-06-26T05:13:44.680Z,941.51
2017-06-26T05:14:12.833Z,941.43
2017-06-26T05:14:40.965Z,941.5
2017-06-26T05:15:09.104Z,941.45
2017-06-26T05:15:37.242Z,941.48
2017-06-26T05:16:05.405Z,941.49
2017-06-26T05:16:33.459Z,941.48
2017-06-26T05:17:01.442Z,941.46
2017-06-26T05:17:29.397Z,941.46
2017-06-26T05:17:57.554Z,941.47
2017-06-26T05:18:25.679Z,941.47
2017-06-26T05:18:53.798Z,941.48
2017-06-26T05:19:21.936Z,941.44
2017-06-26T05:19:50.056Z,941.44
2017-06-26T05:20:18.168Z,941.45
2017-06-26T05:20:46.247Z,941.48
2017-06-26T05:21:14.381Z,941.45
2017-06-26T05:21:42.494Z,941.45
2017-06-26T05:22:10.623Z,941.46
2017-06-26T05:22:38.658Z,941.48
2017-06-26T05:23:06.710Z,941.45
2017-06-26T05:23:34.745Z,941.43
2017-06-26T05:24:02.885Z,941.43
2017-06-26T05:24:31.024Z,941.42
2017-06-26T05:24:59.063Z,941.41
2017-06-26T05:25:27.217Z,941.38
2017-06-26T05:25:55.348Z,941.38
2017-06-26T05:26:23.474Z,941.36
2017-06-26T05:26:51.558Z,941.36
2017-06-26T05:27:19.678Z,941.31
2017-06-26T05:27:47.842Z,941.34
2017-06-26T05:28:15.907Z,941.31
2017-06-26T05:28:44.031Z,941.33
2017-06-26T05:29:12.078Z,941.33
2017-06-26T05:29:40.209Z,941.27
2017-06-26T05:30:08.225Z,941.3
2017-06-26T05:30:36.382Z,941.29
2017-06-26T05:31:04.408Z,941.29
2017-06-26T05:31:32.440Z,941.25
2017-06-26T05:32:00.498Z,941.24
2017-06-26T05:32:28.622Z,941.27
2017-06-26T05:32:56.684Z,941.26
2017-06-26T05:33:24.819Z,941.25
2017-06-26T05:33:52.970Z,941.26
2017-06-26T05:34:21.030Z,941.26
2017-06-26T05:34:49.154Z,941.24
2017-06-26T05:35:17.278Z,941.24
2017-06-26T05:35:45.389Z,941.23
2017-06-26T05:36:13.505Z,941.27
2017-06-26T05:36:41.623Z,941.25
2017-06-26T05:37:09.737Z,941.26
2017-06-26T05:37:37.877Z,941.22
2017-06-26T05:38:05.997Z,941.25
2017-06-26T05:38:34.142Z,941.18
2017-06-26T05:39:02.259Z,941.26
2017-06-26T05:39:30.303Z,941.22
2017-06-26T05:39:58.420Z,941.24
2017-06-26T05:40:26.442Z,941.3
2017-06-26T05:40:54.594Z,941.24
2017-06-26T05:41:22.606Z,941.24
2017-06-26T05:41:50.730Z,941.23
2017-06-26T05:42:18.868Z,941.24
2017-06-26T05:42:47.017Z,941.27
2017-06-26T05:43:15.141Z,941.26
2017-06-26T05:43:43.287Z,941.27
2017-06-26T05:44:11.342Z,941.27
2017-06-26T05:44:39.404Z,941.27
2017-06-26T05:45:07.522Z,941.27
2017-06-26T05:45:35.647Z,941.27
2017-06-26T05:46:03.779Z,941.27
2017-06-26T05:46:31.925Z,941.24
2017-06-26T05:47:00.055Z,941.25
2017-06-26T05:47:28.168Z,941.23
2017-06-26T05:47:56.088Z,941.24
2017-06-26T05:48:24.236Z,941.23
2017-06-26T05:48:52.394Z,941.23
2017-06-26T05:49:20.550Z,941.23
2017-06-26T05:49:48.666Z,941.23
2017-06-26T05:50:16.800Z,941.22
2017-06-26T05:50:44.946Z,941.2
2017-06-26T05:51:13.113Z,941.15
2017-06-26T05:51:41.144Z,941.22